Weather at Montreal / Les Cèdres Airport

Public forecast

Using degrees Celsius for public forecast. Weather courtesy of forecast.io.

Closest aviation weather report (METAR) to Montreal / Les Cèdres Airport

Closest report is Montreal / Pierre Elliott Trudeau International Airport, 16.0 nm (29.6 km) ENE. Retrieved 2021/03/04 01:00 UTC (58 minutes ago):

CYUL 040100Z 31005KT 15SM FEW040 BKN100 M02/M09 A2985 RMK SC2AC5 SLP111

Closest aviation forecast (TAF) to Montreal / Les Cèdres Airport

Closest forecast is Montreal / Pierre Elliott Trudeau International Airport, 16.0 nm (29.6 km) ENE. Retrieved 2021-03-04 03:42 UTC (0 seconds ago):

TAF CYUL 040238Z 0403/0424 32006KT P6SM OVC100 FM040700 32008KT P6SM SCT100 FM041200 30012KT P6SM SKC FM041500 27012G22KT P6SM SKC BECMG 0416/0418 28015G25KT FM042200 30015G25KT P6SM BKN040 OVC080 RMK NXT FCST BY 040600Z